Time;durP1;ratioP1;P1;durP2;ratioP2;P2;SDS_P1;SDS_P2;PMS_P1;PMS_P2;Temp;Humidity;BMP_temperature;BMP_pressure;BME280_temperature;BME280_humidity;BME280_pressure;Samples;Min_cycle;Max_cycle;Signal;HPM_P1;HPM_P2
2022/05/04 00:01:28;;;;;;;12.55;3.83;;;;;;;;;;5054219;27;96098;-73
2022/05/04 00:03:54;;;;;;;12.43;3.92;;;;;;;;;;5055509;27;95757;-73
2022/05/04 00:06:22;;;;;;;12.50;4.03;;;;;;;;;;5071887;27;96967;-72
2022/05/04 00:08:48;;;;;;;15.00;3.95;;;;;;;;;;5077962;27;97500;-73
2022/05/04 00:11:15;;;;;;;10.80;3.88;;;;;;;;;;5075392;27;96896;-72
2022/05/04 00:13:41;;;;;;;13.13;3.95;;;;;;;;;;5074389;27;98592;-72
2022/05/04 00:16:08;;;;;;;12.52;3.78;;;;;;;;;;5075652;27;95492;-73
2022/05/04 00:18:34;;;;;;;10.32;3.85;;;;;;;;;;5075252;27;96881;-73
2022/05/04 00:21:00;;;;;;;9.60;3.78;;;;;;;;;;5075620;27;97242;-72
2022/05/04 00:23:27;;;;;;;10.23;3.75;;;;;;;;;;5074731;27;95160;-72
2022/05/04 00:25:53;;;;;;;11.30;3.65;;;;;;;;;;5075624;27;96867;-72
2022/05/04 00:28:19;;;;;;;18.48;4.00;;;;;;;;;;5074985;27;97499;-72
2022/05/04 00:30:46;;;;;;;18.05;4.65;;;;;;;;;;5078009;27;95300;-73
2022/05/04 00:33:12;;;;;;;11.35;4.05;;;;;;;;;;5074830;27;97416;-72
2022/05/04 00:35:39;;;;;;;9.50;3.85;;;;;;;;;;5063846;27;95388;-72
2022/05/04 00:38:05;;;;;;;12.98;4.28;;;;;;;;;;5055019;27;96957;-72
2022/05/04 00:40:32;;;;;;;13.70;4.07;;;;;;;;;;5054282;27;96485;-72
2022/05/04 00:42:58;;;;;;;9.60;4.28;;;;;;;;;;5036692;27;95258;-73
2022/05/04 00:45:24;;;;;;;11.20;4.18;;;;;;;;;;5054842;27;95785;-73
2022/05/04 00:47:51;;;;;;;11.60;4.32;;;;;;;;;;5074525;27;97634;-69
2022/05/04 00:50:18;;;;;;;11.27;4.05;;;;;;;;;;5074942;27;95513;-74
2022/05/04 00:52:45;;;;;;;17.55;4.93;;;;;;;;;;5077806;27;96866;-73
2022/05/04 00:55:12;;;;;;;18.33;4.40;;;;;;;;;;5074371;27;95334;-72
2022/05/04 01:00:24;;;;;;;9.27;4.03;;;;;;;;;;5074532;27;97186;-72
2022/05/04 01:02:51;;;;;;;11.82;4.50;;;;;;;;;;5056296;27;95341;-73
2022/05/04 01:05:17;;;;;;;12.60;4.22;;;;;;;;;;5073757;27;96845;-72
2022/05/04 01:07:45;;;;;;;15.85;4.07;;;;;;;;;;5073243;27;97638;-73
2022/05/04 01:10:11;;;;;;;11.32;4.03;;;;;;;;;;5074970;27;95309;-72
2022/05/04 01:12:48;;;;;;;14.48;4.40;;;;;;;;;;5074031;27;96905;-72
2022/05/04 01:15:15;;;;;;;12.88;4.13;;;;;;;;;;5078102;27;97365;-72
2022/05/04 01:17:41;;;;;;;12.80;4.70;;;;;;;;;;5075189;27;96805;-72
2022/05/04 01:20:08;;;;;;;14.55;5.43;;;;;;;;;;5074189;27;97276;-72
2022/05/04 01:22:35;;;;;;;13.45;4.20;;;;;;;;;;5073238;27;95505;-73
2022/05/04 01:25:02;;;;;;;16.60;4.85;;;;;;;;;;5074167;27;96699;-72
2022/05/04 01:27:29;;;;;;;15.82;5.15;;;;;;;;;;5073527;27;98133;-72
2022/05/04 01:29:55;;;;;;;15.82;4.28;;;;;;;;;;5074074;27;95395;-73
2022/05/04 01:32:22;;;;;;;15.38;4.53;;;;;;;;;;5072549;27;97181;-73
2022/05/04 01:34:48;;;;;;;11.75;4.38;;;;;;;;;;5058928;27;97422;-73
2022/05/04 01:37:14;;;;;;;19.88;4.50;;;;;;;;;;5074348;27;96765;-73
2022/05/04 01:39:41;;;;;;;9.68;4.32;;;;;;;;;;5073810;27;97347;-72
2022/05/04 01:42:13;;;;;;;13.23;4.63;;;;;;;;;;5074509;27;95294;-73
2022/05/04 01:44:40;;;;;;;12.40;4.55;;;;;;;;;;5073752;27;96753;-73
2022/05/04 01:47:07;;;;;;;12.88;4.10;;;;;;;;;;5073381;27;97341;-73
2022/05/04 01:49:34;;;;;;;10.50;4.03;;;;;;;;;;5073587;27;95410;-73
2022/05/04 01:52:01;;;;;;;11.07;4.35;;;;;;;;;;5073643;27;96563;-72
2022/05/04 01:54:27;;;;;;;26.10;4.88;;;;;;;;;;5073237;27;97365;-72
2022/05/04 01:56:53;;;;;;;14.13;4.60;;;;;;;;;;5077535;27;95346;-72
2022/05/04 01:59:20;;;;;;;11.50;4.40;;;;;;;;;;5055485;27;98189;-73
2022/05/04 02:01:47;;;;;;;15.45;4.38;;;;;;;;;;5073507;27;95943;-74
2022/05/04 02:04:13;;;;;;;10.50;4.15;;;;;;;;;;5074025;27;96779;-73
2022/05/04 02:06:40;;;;;;;15.75;4.22;;;;;;;;;;5073174;27;96616;-73
2022/05/04 02:09:07;;;;;;;13.90;4.50;;;;;;;;;;5073200;27;95507;-73
2022/05/04 02:11:35;;;;;;;16.45;4.38;;;;;;;;;;5073547;27;96892;-73
2022/05/04 02:14:05;;;;;;;15.75;4.70;;;;;;;;;;5072574;27;97515;-77
2022/05/04 02:16:41;;;;;;;13.23;4.20;;;;;;;;;;5035449;27;96082;-77
2022/05/04 02:19:12;;;;;;;20.67;4.68;;;;;;;;;;5061168;27;95791;-76
2022/05/04 02:21:41;;;;;;;12.77;4.65;;;;;;;;;;5073893;27;95160;-71
2022/05/04 02:24:08;;;;;;;13.98;4.85;;;;;;;;;;5073789;27;97042;-73
2022/05/04 02:26:36;;;;;;;14.57;4.90;;;;;;;;;;5072960;27;97035;-74
2022/05/04 02:29:05;;;;;;;15.45;4.88;;;;;;;;;;5073186;27;95466;-74
2022/05/04 02:31:32;;;;;;;14.88;4.95;;;;;;;;;;5073741;27;95549;-74
2022/05/04 02:34:03;;;;;;;16.77;4.88;;;;;;;;;;5055518;27;97717;-74
2022/05/04 02:39:27;;;;;;;13.60;5.30;;;;;;;;;;5073489;27;97202;-74
2022/05/04 02:41:55;;;;;;;15.43;4.50;;;;;;;;;;5058895;27;97856;-74
2022/05/04 02:44:22;;;;;;;12.55;5.38;;;;;;;;;;5072911;27;96054;-74
2022/05/04 02:46:49;;;;;;;13.25;4.82;;;;;;;;;;5073214;27;97374;-77
2022/05/04 02:49:15;;;;;;;16.70;5.88;;;;;;;;;;5054733;27;95371;-74
2022/05/04 02:51:42;;;;;;;18.13;5.25;;;;;;;;;;5072474;27;96797;-74
2022/05/04 02:54:08;;;;;;;18.67;5.82;;;;;;;;;;5073305;27;97347;-77
2022/05/04 02:56:34;;;;;;;19.73;5.53;;;;;;;;;;5073378;27;95345;-78
2022/05/04 02:59:01;;;;;;;20.75;5.88;;;;;;;;;;5054513;27;96773;-77
2022/05/04 03:04:12;;;;;;;16.90;6.05;;;;;;;;;;5075299;27;96588;-77
2022/05/04 03:06:39;;;;;;;16.48;5.70;;;;;;;;;;5072327;27;97456;-74
2022/05/04 03:09:06;;;;;;;13.65;5.38;;;;;;;;;;5072914;27;95376;-78
2022/05/04 03:14:20;;;;;;;11.98;5.07;;;;;;;;;;5072634;27;96241;-77
2022/05/04 03:16:47;;;;;;;16.73;5.18;;;;;;;;;;5072543;27;95354;-74
2022/05/04 03:19:14;;;;;;;16.35;4.85;;;;;;;;;;5072485;27;96955;-76
2022/05/04 03:21:40;;;;;;;18.77;5.00;;;;;;;;;;5054693;27;97562;-76
2022/05/04 03:24:07;;;;;;;13.70;4.60;;;;;;;;;;5073170;27;95296;-75
2022/05/04 03:26:33;;;;;;;13.80;4.70;;;;;;;;;;5076572;27;96937;-77
2022/05/04 03:29:00;;;;;;;14.85;4.93;;;;;;;;;;5076088;27;96152;-74
2022/05/04 03:31:26;;;;;;;12.07;4.63;;;;;;;;;;5075556;27;97443;-76
2022/05/04 03:33:53;;;;;;;15.00;5.07;;;;;;;;;;5074842;27;97375;-78
2022/05/04 03:36:20;;;;;;;17.52;5.10;;;;;;;;;;5076236;27;95350;-75
2022/05/04 03:38:46;;;;;;;15.77;4.90;;;;;;;;;;5058487;27;97289;-75
2022/05/04 03:41:13;;;;;;;13.68;5.55;;;;;;;;;;5074963;27;97355;-74
2022/05/04 03:43:39;;;;;;;11.70;4.78;;;;;;;;;;5075837;27;95319;-76
2022/05/04 03:46:17;;;;;;;15.35;5.18;;;;;;;;;;5079659;27;95633;-75
2022/05/04 03:48:44;;;;;;;17.77;5.50;;;;;;;;;;5058283;27;95351;-74
2022/05/04 03:51:13;;;;;;;13.65;4.88;;;;;;;;;;5076333;27;96836;-77
2022/05/04 03:53:40;;;;;;;14.38;5.25;;;;;;;;;;5074542;27;97813;-77
2022/05/04 03:56:07;;;;;;;16.40;5.10;;;;;;;;;;5075896;27;95385;-76
2022/05/04 03:58:34;;;;;;;18.00;5.15;;;;;;;;;;5075955;27;96281;-75
2022/05/04 04:01:00;;;;;;;16.98;5.20;;;;;;;;;;5075119;27;97212;-77
2022/05/04 04:03:27;;;;;;;15.57;5.20;;;;;;;;;;5075129;27;95653;-73
2022/05/04 19:21:26;;;;;;;14.38;6.00;;;;;;;;;;5068406;27;1295027;-76
2022/05/04 19:23:52;;;;;;;15.95;6.63;;;;;;;;;;5088869;27;98333;-74
2022/05/04 19:26:19;;;;;;;19.55;6.55;;;;;;;;;;5089252;27;95490;-75
2022/05/04 19:28:45;;;;;;;20.27;7.32;;;;;;;;;;5087641;27;95847;-74
2022/05/04 19:31:12;;;;;;;23.88;7.72;;;;;;;;;;5088510;27;96488;-74
2022/05/04 19:33:38;;;;;;;19.38;7.63;;;;;;;;;;5083858;27;96345;-74
2022/05/04 19:36:05;;;;;;;15.13;7.63;;;;;;;;;;5080937;27;96810;-72
2022/05/04 19:38:32;;;;;;;18.50;7.55;;;;;;;;;;5087384;27;97310;-75
2022/05/04 19:40:58;;;;;;;16.17;7.85;;;;;;;;;;5092079;27;95368;-75
2022/05/04 19:43:25;;;;;;;17.02;8.65;;;;;;;;;;5088262;27;97085;-74
2022/05/04 19:45:51;;;;;;;17.70;8.07;;;;;;;;;;5089254;27;95382;-73
2022/05/04 19:48:17;;;;;;;18.90;8.07;;;;;;;;;;5088661;27;96915;-73
2022/05/04 19:50:45;;;;;;;20.45;8.45;;;;;;;;;;5086182;27;97287;-73
2022/05/04 19:53:11;;;;;;;17.95;8.07;;;;;;;;;;5088965;27;95194;-73
2022/05/04 19:55:38;;;;;;;18.70;9.15;;;;;;;;;;5088367;27;96889;-73
2022/05/04 19:58:04;;;;;;;20.50;8.50;;;;;;;;;;5087915;27;97296;-73
2022/05/04 20:00:31;;;;;;;20.83;8.27;;;;;;;;;;5087946;27;95805;-73
2022/05/04 20:02:57;;;;;;;14.88;8.05;;;;;;;;;;5091506;27;97056;-74
2022/05/04 20:05:24;;;;;;;18.10;8.48;;;;;;;;;;5085620;27;96618;-73
2022/05/04 20:07:50;;;;;;;18.33;8.85;;;;;;;;;;5088869;27;96468;-75
2022/05/04 20:10:17;;;;;;;19.83;8.38;;;;;;;;;;5088046;27;97485;-73
2022/05/04 20:12:43;;;;;;;15.05;8.52;;;;;;;;;;5087924;27;95192;-76
2022/05/04 20:15:10;;;;;;;18.20;8.35;;;;;;;;;;5079038;27;98867;-76
2022/05/04 20:17:36;;;;;;;17.92;8.20;;;;;;;;;;5086878;27;97310;-76
2022/05/04 20:20:03;;;;;;;20.42;8.82;;;;;;;;;;5087140;27;95678;-76
2022/05/04 20:22:29;;;;;;;18.48;9.02;;;;;;;;;;5087588;27;96881;-76
2022/05/04 20:24:55;;;;;;;20.98;8.35;;;;;;;;;;5091573;27;97386;-74
2022/05/04 20:27:22;;;;;;;17.58;8.35;;;;;;;;;;5087659;27;96698;-73
2022/05/04 20:29:48;;;;;;;16.80;8.68;;;;;;;;;;5088449;27;97326;-75
2022/05/04 20:32:15;;;;;;;19.17;8.70;;;;;;;;;;5075351;27;96413;-76
2022/05/04 20:34:42;;;;;;;20.50;8.55;;;;;;;;;;5071991;27;96882;-74
2022/05/04 20:37:08;;;;;;;19.73;9.60;;;;;;;;;;5074176;27;96803;-75
2022/05/04 20:39:34;;;;;;;19.77;9.60;;;;;;;;;;5074544;27;95373;-75
2022/05/04 20:42:01;;;;;;;22.33;8.82;;;;;;;;;;5074299;27;96918;-75
2022/05/04 20:44:27;;;;;;;22.15;9.50;;;;;;;;;;5074040;27;97385;-74
2022/05/04 20:46:53;;;;;;;25.75;9.70;;;;;;;;;;5076179;27;95499;-76
2022/05/04 20:49:22;;;;;;;25.48;9.68;;;;;;;;;;5074052;27;97269;-74
2022/05/04 20:54:35;;;;;;;16.55;8.27;;;;;;;;;;5053595;27;96889;-78
2022/05/04 20:57:01;;;;;;;21.27;8.90;;;;;;;;;;5054156;27;97307;-77
2022/05/04 20:59:27;;;;;;;19.85;9.15;;;;;;;;;;5067688;27;97608;-76
2022/05/04 21:01:54;;;;;;;18.65;8.50;;;;;;;;;;5061746;27;96744;-76
2022/05/04 21:04:20;;;;;;;24.67;9.13;;;;;;;;;;5054383;27;97106;-75
2022/05/04 21:06:47;;;;;;;19.52;8.27;;;;;;;;;;5069050;27;95567;-75
2022/05/04 21:09:15;;;;;;;21.13;8.65;;;;;;;;;;5057367;27;96809;-73
2022/05/04 21:11:43;;;;;;;18.42;8.77;;;;;;;;;;5064512;27;95287;-75
2022/05/04 21:14:10;;;;;;;20.50;8.57;;;;;;;;;;5067668;27;96798;-74
2022/05/04 21:16:37;;;;;;;18.40;8.90;;;;;;;;;;5070913;27;97454;-75
2022/05/04 21:19:04;;;;;;;19.05;8.98;;;;;;;;;;5054003;27;95231;-73
2022/05/04 21:21:31;;;;;;;21.80;9.65;;;;;;;;;;5051922;27;96756;-74
2022/05/04 21:23:57;;;;;;;25.05;8.40;;;;;;;;;;5054166;27;97283;-74
2022/05/04 21:26:23;;;;;;;20.77;8.98;;;;;;;;;;5054508;27;95808;-74
2022/05/04 21:28:51;;;;;;;21.05;9.55;;;;;;;;;;5057951;27;96807;-76
2022/05/04 21:31:18;;;;;;;22.80;9.48;;;;;;;;;;5077199;27;95151;-78
2022/05/04 21:33:44;;;;;;;14.75;9.10;;;;;;;;;;5073972;27;96350;-76
2022/05/04 21:36:11;;;;;;;17.98;9.27;;;;;;;;;;5073973;27;97452;-74
2022/05/04 21:38:37;;;;;;;19.35;9.73;;;;;;;;;;5074783;27;95403;-75
2022/05/04 21:41:03;;;;;;;20.60;9.48;;;;;;;;;;5074606;27;96754;-74
2022/05/04 21:43:30;;;;;;;17.60;8.90;;;;;;;;;;5072908;27;96173;-73
2022/05/04 21:45:57;;;;;;;16.35;9.02;;;;;;;;;;5074634;27;95437;-74
2022/05/04 21:48:23;;;;;;;18.80;8.57;;;;;;;;;;5073351;27;96811;-73
2022/05/04 21:50:49;;;;;;;19.73;9.48;;;;;;;;;;5076423;27;97325;-74
2022/05/04 21:53:16;;;;;;;20.90;8.98;;;;;;;;;;5074505;27;96731;-73
2022/05/04 21:55:42;;;;;;;20.40;9.25;;;;;;;;;;5074456;27;97372;-73
2022/05/04 21:58:08;;;;;;;18.20;8.95;;;;;;;;;;5072828;27;95262;-73
2022/05/04 22:00:39;;;;;;;17.35;8.07;;;;;;;;;;5074335;27;96760;-74
2022/05/04 22:03:16;;;;;;;16.67;8.30;;;;;;;;;;5074364;27;97696;-74
2022/05/04 22:05:43;;;;;;;21.70;8.75;;;;;;;;;;5067095;27;95508;-74
2022/05/04 22:08:10;;;;;;;23.52;8.52;;;;;;;;;;5053999;27;96492;-75
2022/05/04 22:10:37;;;;;;;17.70;8.77;;;;;;;;;;5052990;27;97616;-73
2022/05/04 22:15:49;;;;;;;15.13;8.45;;;;;;;;;;5053455;27;97346;-72
2022/05/04 22:18:19;;;;;;;19.02;8.35;;;;;;;;;;5053051;27;95395;-71
2022/05/04 22:20:45;;;;;;;17.65;8.30;;;;;;;;;;5053285;27;96642;-74
2022/05/04 22:23:11;;;;;;;15.85;8.63;;;;;;;;;;5053501;27;97234;-76
2022/05/04 22:25:38;;;;;;;23.33;9.02;;;;;;;;;;5052884;27;95755;-77
2022/05/04 22:28:05;;;;;;;19.63;8.80;;;;;;;;;;5062041;27;97031;-76
2022/05/04 22:30:31;;;;;;;18.90;9.30;;;;;;;;;;5073675;27;97084;-75
2022/05/04 22:32:58;;;;;;;16.90;9.15;;;;;;;;;;5073259;27;95268;-74
2022/05/04 22:35:25;;;;;;;22.20;9.35;;;;;;;;;;5076792;27;96846;-76
2022/05/04 22:37:53;;;;;;;16.98;9.52;;;;;;;;;;5073817;27;95354;-75
2022/05/04 22:40:19;;;;;;;17.63;9.13;;;;;;;;;;5073219;27;96620;-76
2022/05/04 22:42:46;;;;;;;19.23;9.20;;;;;;;;;;5073842;27;97194;-75
2022/05/04 22:45:12;;;;;;;20.27;9.90;;;;;;;;;;5074052;27;95187;-74
2022/05/04 22:47:39;;;;;;;18.88;9.55;;;;;;;;;;5073096;27;97211;-73
2022/05/04 22:50:05;;;;;;;15.82;8.73;;;;;;;;;;5073299;27;97493;-74
2022/05/04 22:52:32;;;;;;;17.23;8.95;;;;;;;;;;5072145;27;95445;-72
2022/05/04 22:54:58;;;;;;;19.25;8.68;;;;;;;;;;5072920;27;96819;-74
2022/05/04 22:57:24;;;;;;;20.27;8.60;;;;;;;;;;5076499;27;97488;-73
2022/05/04 22:59:52;;;;;;;18.05;8.48;;;;;;;;;;5073100;27;96577;-75
2022/05/04 23:02:19;;;;;;;20.20;9.57;;;;;;;;;;5072844;27;97650;-74
2022/05/04 23:04:45;;;;;;;20.08;9.40;;;;;;;;;;5073832;27;95960;-72
2022/05/04 23:07:12;;;;;;;19.05;8.75;;;;;;;;;;5073127;27;96859;-72
2022/05/04 23:09:38;;;;;;;18.83;9.10;;;;;;;;;;5072881;27;97266;-73
2022/05/04 23:12:05;;;;;;;18.30;9.02;;;;;;;;;;5073064;27;96561;-72
2022/05/04 23:14:31;;;;;;;14.52;8.27;;;;;;;;;;5072882;27;96874;-74
2022/05/04 23:16:59;;;;;;;18.52;9.10;;;;;;;;;;5072966;27;96103;-73
2022/05/04 23:19:26;;;;;;;18.60;8.73;;;;;;;;;;5076254;27;95312;-73
2022/05/04 23:21:52;;;;;;;16.38;9.00;;;;;;;;;;5072337;27;97740;-75
2022/05/04 23:24:18;;;;;;;17.10;9.00;;;;;;;;;;5073207;27;95265;-75
2022/05/04 23:26:46;;;;;;;16.73;8.57;;;;;;;;;;5073051;27;96860;-72
2022/05/04 23:29:12;;;;;;;14.40;8.40;;;;;;;;;;5072243;27;97484;-73
2022/05/04 23:31:39;;;;;;;16.85;9.48;;;;;;;;;;5072018;27;95463;-74
2022/05/04 23:34:05;;;;;;;18.20;8.45;;;;;;;;;;5071431;27;97170;-71
2022/05/04 23:39:23;;;;;;;13.98;8.68;;;;;;;;;;5075775;27;95114;-73
2022/05/04 23:41:50;;;;;;;18.08;8.20;;;;;;;;;;5072170;27;97522;-73
2022/05/04 23:44:16;;;;;;;18.77;8.38;;;;;;;;;;5071818;27;96205;-75
2022/05/04 23:46:42;;;;;;;19.42;8.65;;;;;;;;;;5072624;27;96494;-75
2022/05/04 23:49:10;;;;;;;18.75;8.65;;;;;;;;;;5071462;27;97322;-73
2022/05/04 23:51:37;;;;;;;15.00;8.32;;;;;;;;;;5071834;27;95344;-74
2022/05/04 23:54:03;;;;;;;17.25;7.90;;;;;;;;;;5072451;27;96782;-75
2022/05/04 23:56:29;;;;;;;16.33;8.23;;;;;;;;;;5071416;27;97287;-73
2022/05/04 23:58:56;;;;;;;15.55;8.13;;;;;;;;;;5072089;27;95438;-75
